createdAt,value
2018-06-20T00:02:03.124Z,17.14
2018-06-20T00:04:31.482Z,17.14
2018-06-20T00:06:59.804Z,17.18
2018-06-20T00:09:28.315Z,17.08
2018-06-20T00:11:56.688Z,16.99
2018-06-20T00:14:24.998Z,16.97
2018-06-20T00:16:53.367Z,16.94
2018-06-20T00:19:22.239Z,16.92
2018-06-20T00:21:50.675Z,16.96
2018-06-20T00:24:19.236Z,16.87
2018-06-20T00:26:47.497Z,16.85
2018-06-20T00:29:16.927Z,16.78
2018-06-20T00:31:45.245Z,16.76
2018-06-20T00:34:13.522Z,16.84
2018-06-20T00:36:42.458Z,16.91
2018-06-20T00:39:12.389Z,16.86
2018-06-20T00:41:40.721Z,16.78
2018-06-20T00:44:09.656Z,16.72
2018-06-20T00:46:38.049Z,16.66
2018-06-20T00:49:06.565Z,16.57
2018-06-20T00:51:36.018Z,16.51
2018-06-20T00:54:05.397Z,16.56
2018-06-20T00:56:34.159Z,16.44
2018-06-20T00:59:03.244Z,16.27
2018-06-20T01:01:31.588Z,16.31
2018-06-20T01:03:59.896Z,16.40
2018-06-20T01:06:28.257Z,16.34
2018-06-20T01:08:58.692Z,16.32
2018-06-20T01:11:29.570Z,16.39
2018-06-20T01:13:57.817Z,16.43
2018-06-20T01:16:26.091Z,16.42
2018-06-20T01:18:54.472Z,16.54
2018-06-20T01:21:23.509Z,16.61
2018-06-20T01:23:51.822Z,16.58
2018-06-20T01:26:20.209Z,16.38
2018-06-20T01:28:49.038Z,16.33
2018-06-20T01:31:17.910Z,16.28
2018-06-20T01:33:46.233Z,16.43
2018-06-20T01:36:15.331Z,16.41
2018-06-20T01:38:43.612Z,16.25
2018-06-20T01:41:13.147Z,16.32
2018-06-20T01:43:42.946Z,16.32
2018-06-20T01:46:11.295Z,16.40
2018-06-20T01:48:40.652Z,16.36
2018-06-20T01:51:09.575Z,16.45
2018-06-20T01:53:38.048Z,16.51
2018-06-20T01:56:07.005Z,16.51
2018-06-20T01:58:36.912Z,16.66
2018-06-20T02:01:05.392Z,16.73
2018-06-20T02:03:33.694Z,16.76
2018-06-20T02:06:02.642Z,16.77
2018-06-20T02:08:31.551Z,16.80
2018-06-20T02:10:59.851Z,16.82
2018-06-20T02:13:28.248Z,16.76
2018-06-20T02:15:57.891Z,16.78
2018-06-20T02:18:29.289Z,16.78
2018-06-20T02:20:57.664Z,16.75
2018-06-20T02:23:26.355Z,16.70
2018-06-20T02:25:54.974Z,16.64
2018-06-20T02:28:24.371Z,16.50
2018-06-20T02:30:54.161Z,16.37
2018-06-20T02:33:23.862Z,16.46
2018-06-20T02:35:52.627Z,16.51
2018-06-20T02:38:21.072Z,16.38
2018-06-20T02:40:51.064Z,16.25
2018-06-20T02:43:20.337Z,16.11
2018-06-20T02:45:49.205Z,16.21
2018-06-20T02:48:17.680Z,16.18
2018-06-20T02:50:46.040Z,16.06
2018-06-20T02:53:14.422Z,15.94
2018-06-20T02:55:43.520Z,15.84
2018-06-20T02:58:12.369Z,15.77
2018-06-20T03:00:40.656Z,15.71
2018-06-20T03:03:08.933Z,15.65
2018-06-20T03:05:38.190Z,15.55
2018-06-20T03:08:06.429Z,15.55
2018-06-20T03:10:34.980Z,15.46
2018-06-20T03:13:03.404Z,15.57
2018-06-20T03:15:31.954Z,15.51
2018-06-20T03:18:00.996Z,15.39
2018-06-20T03:20:29.366Z,15.52
2018-06-20T03:22:57.654Z,15.64
2018-06-20T03:25:27.060Z,15.69
2018-06-20T03:27:55.591Z,15.74
2018-06-20T03:30:24.480Z,15.71
2018-06-20T03:32:52.793Z,15.73
2018-06-20T03:35:21.702Z,15.73
2018-06-20T03:37:51.081Z,15.73
2018-06-20T03:40:19.866Z,15.71
2018-06-20T03:42:48.642Z,15.81
2018-06-20T03:45:17.409Z,15.81
2018-06-20T03:47:47.236Z,15.75
2018-06-20T03:50:15.748Z,15.75
2018-06-20T03:52:44.880Z,15.77
2018-06-20T03:55:14.841Z,15.79
2018-06-20T03:57:43.960Z,16.01
2018-06-20T04:00:12.650Z,16.14
2018-06-20T04:02:41.738Z,16.15
2018-06-20T04:05:10.042Z,16.18
2018-06-20T04:07:45.104Z,16.22
2018-06-20T04:10:14.355Z,16.29
2018-06-20T04:12:42.698Z,16.27
2018-06-20T04:15:11.040Z,16.23
2018-06-20T04:17:39.389Z,16.36
2018-06-20T04:20:08.082Z,16.43
2018-06-20T04:22:36.522Z,17.23
2018-06-20T04:25:05.029Z,18.36
2018-06-20T04:27:33.409Z,19.61
2018-06-20T04:30:01.728Z,20.22
2018-06-20T04:32:30.100Z,20.93
2018-06-20T04:34:58.442Z,21.70
2018-06-20T04:37:27.589Z,22.48
2018-06-20T04:39:55.748Z,22.86
2018-06-20T04:42:24.069Z,23.16
2018-06-20T04:44:52.227Z,23.44
2018-06-20T04:47:20.308Z,24.15
2018-06-20T04:49:48.378Z,24.36
2018-06-20T04:52:16.452Z,24.69
2018-06-20T04:54:44.524Z,24.94
2018-06-20T04:57:12.616Z,24.99
2018-06-20T04:59:40.901Z,25.30
2018-06-20T05:02:09.003Z,25.25
2018-06-20T05:04:37.341Z,25.43
2018-06-20T05:07:05.432Z,25.56
2018-06-20T05:09:33.498Z,26.02
2018-06-20T05:12:01.596Z,26.49
2018-06-20T05:14:29.671Z,26.60
2018-06-20T05:16:57.998Z,26.69
2018-06-20T05:19:26.085Z,27.12
2018-06-20T05:21:54.221Z,27.11
2018-06-20T05:24:22.323Z,27.03
2018-06-20T05:26:50.407Z,27.33
2018-06-20T05:29:18.481Z,27.53
2018-06-20T05:31:46.608Z,27.90
2018-06-20T05:34:14.693Z,28.35
2018-06-20T05:36:42.896Z,28.57
2018-06-20T05:39:11.865Z,28.40
2018-06-20T05:41:39.996Z,29.31
2018-06-20T05:44:08.612Z,29.84
2018-06-20T05:46:36.756Z,29.53
2018-06-20T05:49:05.177Z,30.49
2018-06-20T05:51:33.476Z,30.37
2018-06-20T05:54:01.540Z,29.78
2018-06-20T05:56:30.221Z,28.08
2018-06-20T05:58:58.297Z,27.80
2018-06-20T06:01:26.360Z,27.44
2018-06-20T06:03:54.664Z,27.59
2018-06-20T06:06:23.469Z,27.77
2018-06-20T06:08:51.648Z,27.72
2018-06-20T06:11:20.092Z,27.62
2018-06-20T06:13:48.244Z,27.47
2018-06-20T06:16:16.378Z,27.39
2018-06-20T06:18:44.482Z,28.38
2018-06-20T06:21:12.552Z,29.02
2018-06-20T06:23:40.668Z,28.07
2018-06-20T06:26:08.800Z,27.91
2018-06-20T06:28:36.952Z,27.33
2018-06-20T06:31:05.034Z,28.70
2018-06-20T06:33:33.116Z,29.56
2018-06-20T06:36:01.333Z,29.52
2018-06-20T06:38:30.267Z,27.94
2018-06-20T06:40:58.315Z,28.20
2018-06-20T06:43:26.692Z,29.00
2018-06-20T06:45:54.769Z,27.17
2018-06-20T06:48:22.832Z,26.06
2018-06-20T06:50:51.016Z,24.19
2018-06-20T06:53:19.204Z,23.46
2018-06-20T06:55:47.311Z,22.89
2018-06-20T06:58:15.383Z,23.16
2018-06-20T07:00:43.451Z,23.39
2018-06-20T07:03:11.524Z,23.29
2018-06-20T07:05:39.716Z,23.35
2018-06-20T07:08:08.066Z,22.83
2018-06-20T07:10:36.456Z,22.81
2018-06-20T07:13:04.717Z,22.49
2018-06-20T07:15:32.931Z,22.37
2018-06-20T07:18:01.721Z,22.25
2018-06-20T07:20:30.220Z,22.32
2018-06-20T07:22:58.503Z,22.57
2018-06-20T07:25:26.811Z,22.29
2018-06-20T07:27:55.033Z,22.43
2018-06-20T07:30:23.529Z,22.65
2018-06-20T07:32:52.537Z,22.43
2018-06-20T07:35:21.359Z,22.41
2018-06-20T07:37:50.168Z,22.43
2018-06-20T07:40:19.322Z,22.32
2018-06-20T07:42:47.610Z,22.39
2018-06-20T07:45:15.994Z,22.50
2018-06-20T07:47:44.295Z,22.70
2018-06-20T07:50:12.360Z,23.14
2018-06-20T07:52:40.515Z,23.08
2018-06-20T07:55:08.596Z,23.23
2018-06-20T07:57:36.691Z,23.21
2018-06-20T08:00:10.365Z,22.80
2018-06-20T08:02:55.171Z,22.98
2018-06-20T08:05:29.823Z,22.96
2018-06-20T08:08:03.322Z,23.10
2018-06-20T08:10:37.264Z,23.03
2018-06-20T08:13:10.594Z,23.35
2018-06-20T08:15:44.080Z,23.36
2018-06-20T08:18:17.572Z,23.56
2018-06-20T08:20:45.632Z,23.87
2018-06-20T08:23:13.716Z,23.70
2018-06-20T08:25:42.127Z,23.69
2018-06-20T08:28:10.157Z,24.00
2018-06-20T08:30:38.236Z,24.26
2018-06-20T08:33:06.344Z,24.44
2018-06-20T08:35:34.916Z,24.69
2018-06-20T08:38:03.128Z,25.01
2018-06-20T08:40:31.534Z,24.81
2018-06-20T08:42:59.607Z,24.82
2018-06-20T08:45:27.907Z,24.20
2018-06-20T08:47:56.003Z,24.49
2018-06-20T08:50:24.079Z,24.53
2018-06-20T08:52:52.896Z,24.50
2018-06-20T08:55:21.946Z,24.83
2018-06-20T08:57:50.012Z,25.12
2018-06-20T09:00:23.528Z,25.20
2018-06-20T09:02:51.996Z,25.28
2018-06-20T09:05:25.796Z,25.69
2018-06-20T09:07:59.121Z,25.65
2018-06-20T09:10:32.545Z,25.74
2018-06-20T09:13:06.073Z,25.75
2018-06-20T09:15:39.781Z,25.39
2018-06-20T09:18:13.351Z,25.70
2018-06-20T09:20:41.421Z,25.69
2018-06-20T09:23:09.508Z,25.45
2018-06-20T09:25:37.575Z,25.49
2018-06-20T09:28:06.367Z,25.79
2018-06-20T09:30:34.440Z,25.53
2018-06-20T09:33:02.527Z,25.47
2018-06-20T09:35:30.640Z,25.55
2018-06-20T09:37:58.732Z,25.56
2018-06-20T09:40:26.814Z,25.28
2018-06-20T09:42:55.048Z,25.32
2018-06-20T09:45:23.477Z,25.69
2018-06-20T09:47:51.644Z,25.82
2018-06-20T09:50:25.089Z,25.74
2018-06-20T09:52:53.363Z,26.27
2018-06-20T09:55:22.371Z,26.33
2018-06-20T09:57:50.639Z,26.65
2018-06-20T10:00:24.147Z,26.81
2018-06-20T10:02:57.582Z,27.12
2018-06-20T10:05:31.001Z,27.05
2018-06-20T10:08:04.460Z,26.74
2018-06-20T10:10:38.073Z,26.71
2018-06-20T10:13:12.193Z,26.37
2018-06-20T10:15:41.304Z,26.75
2018-06-20T10:18:09.407Z,26.56
2018-06-20T10:20:38.072Z,26.78
2018-06-20T10:23:06.144Z,26.96
2018-06-20T10:25:34.281Z,27.01
2018-06-20T10:28:02.350Z,27.21
2018-06-20T10:30:30.455Z,27.40
2018-06-20T10:32:58.630Z,27.61
2018-06-20T10:35:26.737Z,27.96
2018-06-20T10:37:55.079Z,28.02
2018-06-20T10:40:23.277Z,27.93
2018-06-20T10:42:51.356Z,27.78
2018-06-20T10:45:24.669Z,27.64
2018-06-20T10:47:52.753Z,27.63
2018-06-20T10:50:20.856Z,27.69
2018-06-20T10:52:48.944Z,27.47
2018-06-20T10:55:17.980Z,27.07
2018-06-20T10:57:51.589Z,26.78
2018-06-20T11:00:25.041Z,26.96
2018-06-20T11:02:58.420Z,27.35
2018-06-20T11:05:31.973Z,27.73
2018-06-20T11:08:05.557Z,27.74
2018-06-20T11:10:39.211Z,27.48
2018-06-20T11:13:08.620Z,27.24
2018-06-20T11:15:36.853Z,27.29
2018-06-20T11:18:05.099Z,27.46
2018-06-20T11:20:38.654Z,27.87
2018-06-20T11:23:06.860Z,27.95
2018-06-20T11:25:35.089Z,27.94
2018-06-20T11:28:07.491Z,27.56
2018-06-20T11:30:35.614Z,27.65
2018-06-20T11:33:03.725Z,27.75
2018-06-20T11:35:31.912Z,27.82
2018-06-20T11:38:00.093Z,27.63
2018-06-20T11:40:28.159Z,28.08
2018-06-20T11:42:56.275Z,28.23
2018-06-20T11:45:28.936Z,28.22
2018-06-20T11:47:57.294Z,28.39
2018-06-20T11:50:25.482Z,28.29
2018-06-20T11:53:04.180Z,27.98
2018-06-20T11:55:36.268Z,28.34
2018-06-20T11:58:10.257Z,28.25
2018-06-20T12:00:43.846Z,28.09
2018-06-20T12:03:17.253Z,27.92
2018-06-20T12:05:50.751Z,28.00
2018-06-20T12:08:24.202Z,28.47
2018-06-20T12:10:57.804Z,28.66
2018-06-20T12:13:31.228Z,28.88
2018-06-20T12:16:04.703Z,28.57
2018-06-20T12:18:38.264Z,28.70
2018-06-20T12:21:11.720Z,28.38
2018-06-20T12:23:45.212Z,28.27
2018-06-20T12:26:18.626Z,28.70
2018-06-20T12:28:52.149Z,28.90
2018-06-20T12:31:25.504Z,28.63
2018-06-20T12:33:58.796Z,28.58
2018-06-20T12:36:32.272Z,28.80
2018-06-20T12:39:01.307Z,29.13
2018-06-20T12:41:35.703Z,29.02
2018-06-20T12:44:09.884Z,28.92
2018-06-20T12:47:46.290Z,28.91
2018-06-20T12:50:20.787Z,29.04
2018-06-20T12:52:49.591Z,29.20
2018-06-20T12:55:18.034Z,29.18
2018-06-20T12:57:46.112Z,29.05
2018-06-20T13:00:14.525Z,28.87
2018-06-20T13:02:43.608Z,28.95
2018-06-20T13:05:11.791Z,28.93
2018-06-20T13:07:39.935Z,28.87
2018-06-20T13:10:08.040Z,28.78
2018-06-20T13:12:36.424Z,29.19
2018-06-20T13:15:04.568Z,29.03
2018-06-20T13:17:33.174Z,28.89
2018-06-20T13:20:01.420Z,28.89
2018-06-20T13:22:29.791Z,29.10
2018-06-20T13:24:57.881Z,29.35
2018-06-20T13:27:31.341Z,29.44
2018-06-20T13:30:04.877Z,29.44
2018-06-20T13:32:38.323Z,29.56
2018-06-20T13:35:11.842Z,29.40
2018-06-20T13:37:45.313Z,29.40
2018-06-20T13:40:18.668Z,29.25
2018-06-20T13:42:52.304Z,29.26
2018-06-20T13:45:25.915Z,29.21
2018-06-20T13:47:59.954Z,29.51
2018-06-20T13:50:28.140Z,29.54
2018-06-20T13:52:56.206Z,29.48
2018-06-20T13:55:24.279Z,29.53
2018-06-20T13:57:52.448Z,29.54
2018-06-20T14:00:20.568Z,29.63
2018-06-20T14:02:48.651Z,29.60
2018-06-20T14:05:16.713Z,29.67
2018-06-20T14:07:45.709Z,29.38
2018-06-20T14:10:13.781Z,29.20
2018-06-20T14:12:41.848Z,29.35
2018-06-20T14:15:09.939Z,29.62
2018-06-20T14:17:38.055Z,29.36
2018-06-20T14:20:11.667Z,29.57
2018-06-20T14:22:40.128Z,29.69
2018-06-20T14:25:08.228Z,29.61
2018-06-20T14:27:36.310Z,29.71
2018-06-20T14:30:04.664Z,30.01
2018-06-20T14:32:38.151Z,29.97
2018-06-20T14:35:11.470Z,29.64
2018-06-20T14:37:44.859Z,29.56
2018-06-20T14:40:19.082Z,29.48
2018-06-20T14:42:52.783Z,29.60
2018-06-20T14:45:26.223Z,29.50
2018-06-20T14:47:54.287Z,29.38
2018-06-20T14:50:22.576Z,29.48
2018-06-20T14:52:50.697Z,29.69
2018-06-20T14:55:18.780Z,29.78
2018-06-20T14:57:47.897Z,29.71
2018-06-20T15:00:16.324Z,29.68
2018-06-20T15:02:44.445Z,29.82
2018-06-20T15:05:12.539Z,29.68
2018-06-20T15:07:40.596Z,29.31
2018-06-20T15:10:08.711Z,29.86
2018-06-20T15:12:36.793Z,30.20
2018-06-20T15:15:04.963Z,30.49
2018-06-20T15:17:33.048Z,30.84
2018-06-20T15:20:01.234Z,30.73
2018-06-20T15:22:33.484Z,30.88
2018-06-20T15:25:01.595Z,30.41
2018-06-20T15:27:35.308Z,30.72
2018-06-20T15:30:08.656Z,30.63
2018-06-20T15:32:42.210Z,30.72
2018-06-20T15:35:15.569Z,30.86
2018-06-20T15:37:48.949Z,30.41
2018-06-20T15:40:17.042Z,30.68
2018-06-20T15:42:45.320Z,30.67
2018-06-20T15:45:13.513Z,30.46
2018-06-20T15:47:41.884Z,30.34
2018-06-20T15:50:09.979Z,30.36
2018-06-20T15:52:38.280Z,30.31
2018-06-20T15:55:06.425Z,30.32
2018-06-20T15:57:35.103Z,30.42
2018-06-20T16:00:03.330Z,30.51
2018-06-20T16:02:31.638Z,30.58
2018-06-20T16:04:59.967Z,30.86
2018-06-20T16:07:28.052Z,31.03
2018-06-20T16:09:58.450Z,30.68
2018-06-20T16:12:27.398Z,30.29
2018-06-20T16:14:56.380Z,30.51
2018-06-20T16:17:24.484Z,30.66
2018-06-20T16:22:00.833Z,30.43
2018-06-20T16:24:34.474Z,30.59
2018-06-20T16:27:07.803Z,31.14
2018-06-20T16:29:41.392Z,31.27
2018-06-20T16:32:09.902Z,31.65
2018-06-20T16:34:37.980Z,30.90
2018-06-20T16:37:06.922Z,30.73
2018-06-20T16:39:35.207Z,30.54
2018-06-20T16:42:03.588Z,30.26
2018-06-20T16:44:31.995Z,30.92
2018-06-20T16:47:00.265Z,30.95
2018-06-20T16:49:28.572Z,31.13
2018-06-20T16:51:56.857Z,31.29
2018-06-20T16:54:25.547Z,32.48
2018-06-20T16:56:54.646Z,31.42
2018-06-20T16:59:23.331Z,31.74
2018-06-20T17:01:56.827Z,31.54
2018-06-20T17:04:25.084Z,31.57
2018-06-20T17:06:53.816Z,32.31
2018-06-20T17:09:22.216Z,31.32
2018-06-20T17:11:55.698Z,32.13
2018-06-20T17:14:29.738Z,31.41
2018-06-20T17:17:03.899Z,31.08
2018-06-20T17:19:37.352Z,30.83
2018-06-20T17:22:10.780Z,30.71
2018-06-20T17:24:44.380Z,31.42
2018-06-20T17:27:12.624Z,31.58
2018-06-20T17:29:40.916Z,31.08
2018-06-20T17:32:09.260Z,31.15
2018-06-20T17:34:37.607Z,31.41
2018-06-20T17:37:06.571Z,31.54
2018-06-20T17:39:35.240Z,32.02
2018-06-20T17:42:03.392Z,31.42
2018-06-20T17:44:31.604Z,30.50
2018-06-20T17:46:59.675Z,31.56
2018-06-20T17:49:27.747Z,31.37
2018-06-20T17:51:56.124Z,30.50
2018-06-20T17:54:24.215Z,29.81
2018-06-20T17:56:52.520Z,29.43
2018-06-20T17:59:21.420Z,29.30
2018-06-20T18:01:49.532Z,29.14
2018-06-20T18:04:23.031Z,29.06
2018-06-20T18:06:56.555Z,28.91
2018-06-20T18:09:30.014Z,28.84
2018-06-20T18:12:03.428Z,28.72
2018-06-20T18:15:35.177Z,28.59
2018-06-20T18:18:03.276Z,28.28
2018-06-20T18:20:31.347Z,28.10
2018-06-20T18:22:59.434Z,28.07
2018-06-20T18:25:27.524Z,27.93
2018-06-20T18:27:55.836Z,27.92
2018-06-20T18:30:24.328Z,27.79
2018-06-20T18:32:52.568Z,27.77
2018-06-20T18:35:21.547Z,27.76
2018-06-20T18:37:49.648Z,27.68
2018-06-20T18:40:17.876Z,27.66
2018-06-20T18:42:46.441Z,27.55
2018-06-20T18:45:14.752Z,27.51
2018-06-20T18:47:48.393Z,27.45
2018-06-20T18:50:16.716Z,27.40
2018-06-20T18:52:45.973Z,27.31
2018-06-20T18:55:14.089Z,27.26
2018-06-20T18:57:47.476Z,27.19
2018-06-20T19:00:21.227Z,27.16
2018-06-20T19:02:54.840Z,27.12
2018-06-20T19:05:28.198Z,26.97
2018-06-20T19:08:01.563Z,26.87
2018-06-20T19:10:29.648Z,26.76
2018-06-20T19:12:57.763Z,26.63
2018-06-20T19:15:25.861Z,26.48
2018-06-20T19:17:53.946Z,26.44
2018-06-20T19:20:22.072Z,26.35
2018-06-20T19:22:50.148Z,26.23
2018-06-20T19:25:18.232Z,26.09
2018-06-20T19:27:46.335Z,25.99
2018-06-20T19:30:14.615Z,25.95
2018-06-20T19:32:42.744Z,25.89
2018-06-20T19:35:10.816Z,25.83
2018-06-20T19:37:39.019Z,25.75
2018-06-20T19:40:07.155Z,25.63
2018-06-20T19:42:35.302Z,25.51
2018-06-20T19:45:03.511Z,25.43
2018-06-20T19:47:31.971Z,25.27
2018-06-20T19:50:00.317Z,25.14
2018-06-20T19:52:28.387Z,24.98
2018-06-20T19:54:56.481Z,24.82
2018-06-20T19:57:24.546Z,24.71
2018-06-20T19:59:52.623Z,24.59
2018-06-20T20:02:20.808Z,24.48
2018-06-20T20:04:49.367Z,24.41
2018-06-20T20:07:17.482Z,24.30
2018-06-20T20:09:45.549Z,24.20
2018-06-20T20:12:13.757Z,24.12
2018-06-20T20:14:41.852Z,24.08
2018-06-20T20:17:09.936Z,23.97
2018-06-20T20:19:38.066Z,23.83
2018-06-20T20:22:06.276Z,23.76
2018-06-20T20:24:34.359Z,23.71
2018-06-20T20:27:02.552Z,23.60
2018-06-20T20:29:31.271Z,23.57
2018-06-20T20:31:59.413Z,23.55
2018-06-20T20:34:27.589Z,23.50
2018-06-20T20:36:55.796Z,23.48
2018-06-20T20:39:24.294Z,23.43
2018-06-20T20:41:52.396Z,23.42
2018-06-20T20:44:20.742Z,23.35
2018-06-20T20:46:48.809Z,23.26
2018-06-20T20:49:16.876Z,23.15
2018-06-20T20:51:44.954Z,23.17
2018-06-20T20:54:13.019Z,23.02
2018-06-20T20:56:41.206Z,22.95
2018-06-20T20:59:09.407Z,22.91
2018-06-20T21:01:38.520Z,22.83
2018-06-20T21:04:06.620Z,22.77
2018-06-20T21:06:34.733Z,22.66
2018-06-20T21:09:02.851Z,22.56
2018-06-20T21:11:31.684Z,22.46
2018-06-20T21:14:00.563Z,22.33
2018-06-20T21:16:28.645Z,22.23
2018-06-20T21:18:57.327Z,22.11
2018-06-20T21:21:25.400Z,21.99
2018-06-20T21:23:53.600Z,21.95
2018-06-20T21:26:21.984Z,21.95
2018-06-20T21:28:50.275Z,21.85
2018-06-20T21:31:18.496Z,21.85
2018-06-20T21:33:46.807Z,21.84
2018-06-20T21:36:15.024Z,21.84
2018-06-20T21:38:43.107Z,21.79
2018-06-20T21:41:11.196Z,21.73
2018-06-20T21:43:39.279Z,21.69
2018-06-20T21:46:07.354Z,21.59
2018-06-20T21:48:35.608Z,21.55
2018-06-20T21:51:03.643Z,21.50
2018-06-20T21:53:31.713Z,21.52
2018-06-20T21:55:59.776Z,21.56
2018-06-20T21:58:28.616Z,21.48
2018-06-20T22:02:40.932Z,21.32
2018-06-20T22:05:09.262Z,21.17
2018-06-20T22:07:37.976Z,21.19
2018-06-20T22:10:06.760Z,21.12
2018-06-20T22:12:34.949Z,21.15
2018-06-20T22:15:03.421Z,21.17
2018-06-20T22:17:31.724Z,21.12
2018-06-20T22:19:59.810Z,21.07
2018-06-20T22:22:27.888Z,20.96
2018-06-20T22:24:56.160Z,20.88
2018-06-20T22:27:24.376Z,20.83
2018-06-20T22:29:52.677Z,20.90
2018-06-20T22:32:20.732Z,20.92
2018-06-20T22:34:49.000Z,20.86
2018-06-20T22:37:17.295Z,20.75
2018-06-20T22:39:45.612Z,20.72
2018-06-20T22:42:14.256Z,20.63
2018-06-20T22:44:43.512Z,20.63
2018-06-20T22:47:11.596Z,20.64
2018-06-20T22:49:39.692Z,20.50
2018-06-20T22:52:07.949Z,20.57
2018-06-20T22:54:36.275Z,20.55
2018-06-20T22:57:04.372Z,20.57
2018-06-20T22:59:32.466Z,20.55
2018-06-20T23:02:00.547Z,20.65
2018-06-20T23:04:28.718Z,20.69
2018-06-20T23:06:56.796Z,20.72
2018-06-20T23:09:24.911Z,20.67
2018-06-20T23:11:53.124Z,20.65
2018-06-20T23:14:21.212Z,20.52
2018-06-20T23:16:49.296Z,20.56
2018-06-20T23:19:17.492Z,20.52
2018-06-20T23:21:45.808Z,20.42
2018-06-20T23:24:14.080Z,20.39
2018-06-20T23:26:43.818Z,20.29
2018-06-20T23:29:12.045Z,20.17
2018-06-20T23:31:40.384Z,20.13
2018-06-20T23:34:08.710Z,20.28
2018-06-20T23:36:36.967Z,20.20
2018-06-20T23:39:07.799Z,20.18
2018-06-20T23:41:37.303Z,20.10
2018-06-20T23:44:05.664Z,19.93
2018-06-20T23:46:33.789Z,19.86
2018-06-20T23:49:02.044Z,19.77
2018-06-20T23:51:30.200Z,19.83
2018-06-20T23:53:58.749Z,19.65
2018-06-20T23:56:27.022Z,19.56
2018-06-20T23:58:55.083Z,19.60
